FAWK

Waterkloof Air Force Base Airport

Airport
ICAO code
FAWK
Summary
ICAO Region
AFI
ICAO Territory
Location

, Gauteng

Serving
Waterkloof
Elevation
4940 ft
Coordinates
25° 49' 48" S , 28° 13' 21" E
Metar
FAWK 241000Z AUTO 28005KT //// // ////// 28/16 Q1024

Runways

Designator Length Width Surface Rops
6/24 1920 45 ASP No/No
1/19 3353 45 ASP No/No

Airport map

Aerial View

SKYbrary Partners:

Safety knowledge contributed by: